createdAt,value
2023-10-21T00:00:05.199Z,97540.09
2023-10-21T00:01:02.711Z,97533.63
2023-10-21T00:01:53.645Z,97531.22
2023-10-21T00:02:44.526Z,97533.63
2023-10-21T00:03:35.605Z,97543.94
2023-10-21T00:04:27.102Z,97542.88
2023-10-21T00:05:18.470Z,97546.50
2023-10-21T00:06:09.413Z,97552.09
2023-10-21T00:07:00.287Z,97548.50
2023-10-21T00:07:51.203Z,97545.06
2023-10-21T00:08:42.178Z,97543.69
2023-10-21T00:09:33.401Z,97544.66
2023-10-21T00:10:24.558Z,97552.16
2023-10-21T00:11:17.286Z,97553.13
2023-10-21T00:12:10.006Z,97554.16
2023-10-21T00:13:01.287Z,97556.78
2023-10-21T00:13:51.759Z,97559.53
2023-10-21T00:14:42.755Z,97560.97
2023-10-21T00:15:35.413Z,97562.75
2023-10-21T00:16:26.099Z,97568.19
2023-10-21T00:17:17.202Z,97575.50
2023-10-21T00:18:08.231Z,97572.06
2023-10-21T00:18:59.248Z,97577.13
2023-10-21T00:19:51.697Z,97577.50
2023-10-21T00:20:42.576Z,97569.44
2023-10-21T00:21:33.420Z,97568.25
2023-10-21T00:22:24.222Z,97571.06
2023-10-21T00:23:15.072Z,97569.25
2023-10-21T00:24:06.381Z,97573.06
2023-10-21T00:24:57.561Z,97569.41
2023-10-21T00:25:48.363Z,97570.78
2023-10-21T00:26:48.504Z,97585.50
2023-10-21T00:27:40.053Z,97580.38
2023-10-21T00:28:31.218Z,97570.84
2023-10-21T00:29:22.252Z,97581.03
2023-10-21T00:30:14.536Z,97574.97
2023-10-21T00:31:05.558Z,97575.03
2023-10-21T00:31:56.608Z,97585.41
2023-10-21T00:32:47.455Z,97578.72
2023-10-21T00:33:38.299Z,97580.53
2023-10-21T00:34:29.028Z,97584.16
2023-10-21T00:35:19.769Z,97581.53
2023-10-21T00:36:10.734Z,97580.28
2023-10-21T00:37:01.564Z,97576.88
2023-10-21T00:37:52.350Z,97580.28
2023-10-21T00:38:43.304Z,97581.09
2023-10-21T00:39:35.773Z,97584.28
2023-10-21T00:40:26.910Z,97585.00
2023-10-21T00:41:17.767Z,97585.16
2023-10-21T00:42:08.713Z,97582.38
2023-10-21T00:42:59.361Z,97583.59
2023-10-21T00:43:50.208Z,97587.22
2023-10-21T00:44:41.366Z,97585.97
2023-10-21T00:45:32.325Z,97587.00
2023-10-21T00:46:27.668Z,97587.00
2023-10-21T00:47:18.546Z,97589.03
2023-10-21T00:48:09.373Z,97587.00
2023-10-21T00:49:00.912Z,97582.34
2023-10-21T00:49:51.559Z,97589.66
2023-10-21T00:50:42.489Z,97586.44
2023-10-21T00:51:34.822Z,97580.03
2023-10-21T00:52:26.529Z,97592.00
2023-10-21T00:53:17.739Z,97593.41
2023-10-21T00:54:08.946Z,97593.41
2023-10-21T00:55:03.180Z,97594.50
2023-10-21T00:55:53.991Z,97597.59
2023-10-21T00:56:44.666Z,97587.91
2023-10-21T00:57:37.560Z,97594.44
2023-10-21T00:58:32.202Z,97595.47
2023-10-21T00:59:24.860Z,97591.81
2023-10-21T01:00:17.937Z,97593.69
2023-10-21T01:01:09.724Z,97592.31
2023-10-21T01:02:00.683Z,97588.69
2023-10-21T01:02:51.513Z,97592.53
2023-10-21T01:03:42.750Z,97588.09
2023-10-21T01:04:33.661Z,97596.22
2023-10-21T01:05:24.665Z,97598.22
2023-10-21T01:06:16.211Z,97594.22
2023-10-21T01:07:07.129Z,97587.13
2023-10-21T01:08:00.962Z,97591.16
2023-10-21T01:08:51.786Z,97592.38
2023-10-21T01:09:42.803Z,97593.81
2023-10-21T01:10:33.792Z,97599.91
2023-10-21T01:11:24.844Z,97599.72
2023-10-21T01:12:15.747Z,97599.16
2023-10-21T01:13:06.401Z,97603.03
2023-10-21T01:13:57.466Z,97599.38
2023-10-21T01:14:48.634Z,97601.63
2023-10-21T01:15:39.654Z,97603.25
2023-10-21T01:16:31.056Z,97601.63
2023-10-21T01:17:21.887Z,97601.44
2023-10-21T01:18:13.663Z,97605.47
2023-10-21T01:19:08.362Z,97599.41
2023-10-21T01:20:00.320Z,97598.78
2023-10-21T01:20:53.623Z,97599.59
2023-10-21T01:21:44.454Z,97597.97
2023-10-21T01:22:35.210Z,97596.16
2023-10-21T01:23:26.580Z,97600.81
2023-10-21T01:24:17.433Z,97597.16
2023-10-21T01:25:08.972Z,97599.00
2023-10-21T01:26:00.700Z,97601.81
2023-10-21T01:26:52.194Z,97598.97
2023-10-21T01:27:42.944Z,97602.44
2023-10-21T01:28:34.230Z,97593.31
2023-10-21T01:29:25.696Z,97602.44
2023-10-21T01:30:17.499Z,97598.97
2023-10-21T01:31:08.183Z,97607.69
2023-10-21T01:31:58.912Z,97593.72
2023-10-21T01:32:50.153Z,97603.03
2023-10-21T01:33:41.226Z,97599.97
2023-10-21T01:34:31.891Z,97593.91
2023-10-21T01:35:25.561Z,97602.00
2023-10-21T01:36:16.761Z,97602.84
2023-10-21T01:37:07.544Z,97605.06
2023-10-21T01:37:58.375Z,97599.19
2023-10-21T01:38:49.388Z,97600.00
2023-10-21T01:39:40.518Z,97597.16
2023-10-21T01:40:31.143Z,97599.19
2023-10-21T01:41:22.306Z,97602.00
2023-10-21T01:42:13.208Z,97602.00
2023-10-21T01:43:04.079Z,97608.50
2023-10-21T01:43:54.947Z,97612.75
2023-10-21T01:44:45.748Z,97610.53
2023-10-21T01:45:39.584Z,97605.25
2023-10-21T01:46:30.717Z,97610.53
2023-10-21T01:47:21.525Z,97615.00
2023-10-21T01:48:12.717Z,97608.50
2023-10-21T01:49:05.383Z,97605.25
2023-10-21T01:49:55.874Z,97601.41
2023-10-21T01:50:46.740Z,97597.16
2023-10-21T01:51:37.500Z,97599.97
2023-10-21T01:52:28.194Z,97594.72
2023-10-21T01:53:19.033Z,97587.41
2023-10-21T01:54:10.138Z,97584.56
2023-10-21T01:55:01.145Z,97586.81
2023-10-21T01:56:00.987Z,97591.88
2023-10-21T01:56:53.528Z,97587.63
2023-10-21T01:57:44.509Z,97596.53
2023-10-21T01:58:35.499Z,97602.44
2023-10-21T01:59:26.382Z,97610.97
2023-10-21T02:00:20.475Z,97624.72
2023-10-21T02:01:12.752Z,97630.19
2023-10-21T02:02:04.130Z,97630.63
2023-10-21T02:02:56.835Z,97630.00
2023-10-21T02:03:48.423Z,97635.06
2023-10-21T02:04:39.362Z,97632.84
2023-10-21T02:05:30.563Z,97635.72
2023-10-21T02:06:21.836Z,97630.03
2023-10-21T02:07:12.694Z,97626.16
2023-10-21T02:08:03.861Z,97632.44
2023-10-21T02:08:55.108Z,97633.88
2023-10-21T02:09:45.820Z,97639.97
2023-10-21T02:10:40.260Z,97634.88
2023-10-21T02:11:31.419Z,97637.50
2023-10-21T02:12:22.304Z,97631.66
2023-10-21T02:13:13.929Z,97630.63
2023-10-21T02:14:04.985Z,97619.50
2023-10-21T02:14:55.699Z,97626.78
2023-10-21T02:15:46.709Z,97627.19
2023-10-21T02:16:37.608Z,97632.44
2023-10-21T02:17:28.615Z,97628.59
2023-10-21T02:18:19.791Z,97635.09
2023-10-21T02:19:10.671Z,97638.16
2023-10-21T02:20:01.484Z,97641.56
2023-10-21T02:20:54.581Z,97636.72
2023-10-21T02:21:46.049Z,97641.19
2023-10-21T02:22:37.294Z,97637.94
2023-10-21T02:23:28.351Z,97643.41
2023-10-21T02:24:19.125Z,97637.94
2023-10-21T02:25:15.493Z,97641.19
2023-10-21T02:26:10.297Z,97647.25
2023-10-21T02:27:00.987Z,97651.31
2023-10-21T02:27:51.840Z,97648.69
2023-10-21T02:28:42.719Z,97648.66
2023-10-21T02:29:33.645Z,97650.50
2023-10-21T02:30:24.723Z,97649.06
2023-10-21T02:31:18.108Z,97651.72
2023-10-21T02:32:09.308Z,97653.94
2023-10-21T02:33:00.279Z,97649.09
2023-10-21T02:33:51.241Z,97658.00
2023-10-21T02:34:42.810Z,97661.25
2023-10-21T02:35:34.495Z,97664.91
2023-10-21T02:36:26.031Z,97662.47
2023-10-21T02:37:16.623Z,97661.63
2023-10-21T02:38:07.443Z,97660.44
2023-10-21T02:38:58.431Z,97657.41
2023-10-21T02:39:49.419Z,97659.63
2023-10-21T02:40:43.774Z,97661.03
2023-10-21T02:41:34.830Z,97662.66
2023-10-21T02:42:25.798Z,97657.59
2023-10-21T02:43:16.441Z,97655.34
2023-10-21T02:44:07.833Z,97658.81
2023-10-21T02:44:58.986Z,97660.44
2023-10-21T02:45:50.069Z,97663.47
2023-10-21T02:46:40.834Z,97665.28
2023-10-21T02:47:35.246Z,97658.00
2023-10-21T02:48:26.389Z,97659.22
2023-10-21T02:49:17.433Z,97664.47
2023-10-21T02:50:08.670Z,97664.06
2023-10-21T02:50:59.250Z,97663.47
2023-10-21T02:51:51.006Z,97666.50
2023-10-21T02:52:41.701Z,97660.63
2023-10-21T02:53:32.659Z,97666.13
2023-10-21T02:54:23.763Z,97669.34
2023-10-21T02:55:14.650Z,97670.97
2023-10-21T02:56:08.800Z,97670.34
2023-10-21T02:56:59.997Z,97669.75
2023-10-21T02:57:50.683Z,97671.16
2023-10-21T02:58:41.648Z,97667.31
2023-10-21T02:59:32.787Z,97671.78
2023-10-21T03:00:23.842Z,97676.63
2023-10-21T03:01:17.358Z,97678.03
2023-10-21T03:02:08.576Z,97671.78
2023-10-21T03:03:00.627Z,97677.03
2023-10-21T03:03:52.844Z,97676.84
2023-10-21T03:04:43.979Z,97672.78
2023-10-21T03:05:34.959Z,97673.56
2023-10-21T03:06:25.785Z,97670.31
2023-10-21T03:07:16.647Z,97680.66
2023-10-21T03:08:07.580Z,97679.44
2023-10-21T03:08:58.714Z,97688.56
2023-10-21T03:09:49.567Z,97683.28
2023-10-21T03:10:40.389Z,97683.47
2023-10-21T03:11:31.829Z,97696.03
2023-10-21T03:12:23.197Z,97688.97
2023-10-21T03:13:14.180Z,97689.94
2023-10-21T03:14:05.358Z,97686.94
2023-10-21T03:14:57.158Z,97695.66
2023-10-21T03:15:47.958Z,97697.84
2023-10-21T03:16:38.830Z,97697.66
2023-10-21T03:17:30.453Z,97689.38
2023-10-21T03:18:21.758Z,97702.31
2023-10-21T03:19:12.928Z,97701.84
2023-10-21T03:20:04.344Z,97702.44
2023-10-21T03:20:55.134Z,97707.13
2023-10-21T03:21:46.451Z,97706.72
2023-10-21T03:22:37.226Z,97693.31
2023-10-21T03:23:28.075Z,97696.78
2023-10-21T03:24:18.923Z,97699.63
2023-10-21T03:25:09.870Z,97698.19
2023-10-21T03:26:02.183Z,97705.47
2023-10-21T03:26:52.992Z,97712.16
2023-10-21T03:27:43.834Z,97709.34
2023-10-21T03:28:35.854Z,97705.06
2023-10-21T03:29:27.409Z,97703.47
2023-10-21T03:30:18.657Z,97696.19
2023-10-21T03:31:10.102Z,97698.59
2023-10-21T03:32:00.855Z,97702.25
2023-10-21T03:32:51.826Z,97700.44
2023-10-21T03:33:42.686Z,97701.47
2023-10-21T03:34:34.847Z,97699.50
2023-10-21T03:35:26.046Z,97704.75
2023-10-21T03:36:17.346Z,97706.16
2023-10-21T03:37:08.780Z,97712.66
2023-10-21T03:38:00.997Z,97715.31
2023-10-21T03:38:52.620Z,97713.50
2023-10-21T03:39:43.690Z,97707.84
2023-10-21T03:40:35.102Z,97707.22
2023-10-21T03:41:26.293Z,97702.75
2023-10-21T03:42:17.699Z,97698.31
2023-10-21T03:43:08.629Z,97706.22
2023-10-21T03:43:59.254Z,97697.91
2023-10-21T03:44:50.171Z,97701.38
2023-10-21T03:45:43.194Z,97707.06
2023-10-21T03:46:33.963Z,97710.28
2023-10-21T03:47:24.941Z,97710.50
2023-10-21T03:48:15.984Z,97710.28
2023-10-21T03:49:06.837Z,97704.78
2023-10-21T03:49:58.695Z,97707.25
2023-10-21T03:50:50.032Z,97715.56
2023-10-21T03:51:40.986Z,97719.00
2023-10-21T03:52:31.775Z,97709.69
2023-10-21T03:53:22.972Z,97714.34
2023-10-21T03:54:14.006Z,97718.41
2023-10-21T03:55:05.755Z,97717.19
2023-10-21T03:55:56.473Z,97712.31
2023-10-21T03:56:47.845Z,97718.63
2023-10-21T03:57:38.751Z,97724.91
2023-10-21T03:58:30.232Z,97719.63
2023-10-21T03:59:21.118Z,97726.16
2023-10-21T04:00:13.389Z,97726.75
2023-10-21T04:01:06.308Z,97720.28
2023-10-21T04:01:58.819Z,97732.44
2023-10-21T04:02:49.865Z,97735.50
2023-10-21T04:03:40.761Z,97729.81
2023-10-21T04:04:31.911Z,97738.31
2023-10-21T04:05:22.775Z,97737.72
2023-10-21T04:06:15.257Z,97735.31
2023-10-21T04:07:06.884Z,97744.63
2023-10-21T04:07:57.957Z,97735.50
2023-10-21T04:08:48.891Z,97732.88
2023-10-21T04:09:39.615Z,97733.50
2023-10-21T04:10:30.486Z,97739.78
2023-10-21T04:11:22.313Z,97743.25
2023-10-21T04:12:15.779Z,97744.03
2023-10-21T04:13:07.085Z,97748.72
2023-10-21T04:13:57.947Z,97744.88
2023-10-21T04:14:48.893Z,97746.28
2023-10-21T04:15:42.572Z,97749.31
2023-10-21T04:16:34.022Z,97745.06
2023-10-21T04:17:24.924Z,97747.69
2023-10-21T04:18:15.911Z,97750.94
2023-10-21T04:19:06.586Z,97752.16
2023-10-21T04:19:57.532Z,97752.16
2023-10-21T04:20:48.543Z,97753.97
2023-10-21T04:21:39.455Z,97751.56
2023-10-21T04:22:31.298Z,97759.06
2023-10-21T04:23:22.402Z,97758.25
2023-10-21T04:24:13.065Z,97758.25
2023-10-21T04:25:04.299Z,97762.91
2023-10-21T04:25:55.124Z,97758.66
2023-10-21T04:26:46.095Z,97757.44
2023-10-21T04:27:37.087Z,97752.75
2023-10-21T04:28:27.707Z,97751.13
2023-10-21T04:29:18.557Z,97755.00
2023-10-21T04:30:09.820Z,97755.59
2023-10-21T04:31:00.817Z,97752.75
2023-10-21T04:31:51.560Z,97755.22
2023-10-21T04:32:42.495Z,97749.34
2023-10-21T04:33:33.485Z,97752.56
2023-10-21T04:34:24.370Z,97755.00
2023-10-21T04:35:15.384Z,97755.22
2023-10-21T04:36:06.278Z,97759.69
2023-10-21T04:36:58.287Z,97757.03
2023-10-21T04:37:49.441Z,97760.69
2023-10-21T04:38:39.821Z,97759.88
2023-10-21T04:39:31.755Z,97752.97
2023-10-21T04:40:22.860Z,97758.47
2023-10-21T04:41:13.609Z,97757.84
2023-10-21T04:42:05.868Z,97756.41
2023-10-21T04:42:57.036Z,97755.00
2023-10-21T04:43:48.341Z,97756.59
2023-10-21T04:44:39.542Z,97759.66
2023-10-21T04:45:30.709Z,97760.88
2023-10-21T04:46:21.398Z,97752.56
2023-10-21T04:47:13.249Z,97758.84
2023-10-21T04:48:04.916Z,97755.81
2023-10-21T04:48:55.893Z,97756.44
2023-10-21T04:49:47.019Z,97752.94
2023-10-21T04:50:37.970Z,97762.88
2023-10-21T04:51:28.922Z,97770.41
2023-10-21T04:52:20.401Z,97768.00
2023-10-21T04:53:11.306Z,97761.06
2023-10-21T04:54:02.130Z,97764.94
2023-10-21T04:54:52.935Z,97767.38
2023-10-21T04:55:43.829Z,97762.09
2023-10-21T04:56:34.697Z,97775.06
2023-10-21T04:57:25.557Z,97768.38
2023-10-21T04:58:16.369Z,97763.91
2023-10-21T04:59:07.309Z,97764.53
2023-10-21T04:59:58.126Z,97769.59
2023-10-21T05:00:48.871Z,97765.97
2023-10-21T05:01:39.872Z,97762.50
2023-10-21T05:02:30.869Z,97764.31
2023-10-21T05:03:22.144Z,97766.75
2023-10-21T05:04:13.293Z,97768.59
2023-10-21T05:05:04.428Z,97769.41
2023-10-21T05:05:55.145Z,97770.03
2023-10-21T05:06:45.855Z,97765.72
2023-10-21T05:07:36.671Z,97768.59
2023-10-21T05:08:27.523Z,97766.16
2023-10-21T05:09:18.754Z,97769.59
2023-10-21T05:10:09.732Z,97773.22
2023-10-21T05:11:00.908Z,97773.66
2023-10-21T05:11:51.873Z,97768.38
2023-10-21T05:12:42.633Z,97772.44
2023-10-21T05:13:34.262Z,97778.13
2023-10-21T05:14:24.920Z,97772.63
2023-10-21T05:15:16.876Z,97778.31
2023-10-21T05:16:07.508Z,97779.94
2023-10-21T05:16:58.460Z,97776.91
2023-10-21T05:17:49.489Z,97772.63
2023-10-21T05:18:40.441Z,97768.56
2023-10-21T05:19:31.709Z,97769.97
2023-10-21T05:20:22.490Z,97770.34
2023-10-21T05:21:13.498Z,97771.16
2023-10-21T05:22:04.399Z,97772.38
2023-10-21T05:22:54.976Z,97779.09
2023-10-21T05:23:46.180Z,97787.00
2023-10-21T05:24:36.939Z,97791.69
2023-10-21T05:25:28.150Z,97780.91
2023-10-21T05:26:20.190Z,97792.50
2023-10-21T05:27:11.327Z,97790.25
2023-10-21T05:28:02.276Z,97791.88
2023-10-21T05:28:53.075Z,97794.69
2023-10-21T05:29:43.896Z,97799.00
2023-10-21T05:30:35.272Z,97797.97
2023-10-21T05:31:26.401Z,97794.47
2023-10-21T05:32:17.080Z,97803.63
2023-10-21T05:33:09.979Z,97800.16
2023-10-21T05:34:01.694Z,97803.41
2023-10-21T05:34:52.603Z,97814.19
2023-10-21T05:35:43.725Z,97805.44
2023-10-21T05:36:35.035Z,97807.50
2023-10-21T05:37:27.257Z,97808.28
2023-10-21T05:38:17.980Z,97814.00
2023-10-21T05:39:08.970Z,97808.91
2023-10-21T05:40:02.256Z,97809.94
2023-10-21T05:40:53.516Z,97815.63
2023-10-21T05:41:44.395Z,97818.66
2023-10-21T05:42:35.272Z,97814.19
2023-10-21T05:43:26.150Z,97815.81
2023-10-21T05:44:17.025Z,97818.44
2023-10-21T05:45:09.757Z,97819.66
2023-10-21T05:46:04.346Z,97822.31
2023-10-21T05:46:55.037Z,97821.50
2023-10-21T05:47:47.097Z,97823.72
2023-10-21T05:48:37.799Z,97818.84
2023-10-21T05:49:28.542Z,97825.38
2023-10-21T05:50:20.938Z,97818.25
2023-10-21T05:51:11.472Z,97822.75
2023-10-21T05:52:02.254Z,97827.03
2023-10-21T05:52:53.236Z,97825.16
2023-10-21T05:53:44.266Z,97832.88
2023-10-21T05:54:35.434Z,97839.38
2023-10-21T05:55:26.577Z,97836.31
2023-10-21T05:56:17.654Z,97840.38
2023-10-21T05:57:08.901Z,97841.81
2023-10-21T05:57:59.970Z,97845.66
2023-10-21T05:58:51.898Z,97846.66
2023-10-21T05:59:42.831Z,97851.56
2023-10-21T06:00:33.770Z,97853.38
2023-10-21T06:01:24.654Z,97853.19
2023-10-21T06:02:15.471Z,97855.22
2023-10-21T06:03:09.284Z,97859.69
2023-10-21T06:04:00.412Z,97860.50
2023-10-21T06:04:51.449Z,97865.53
2023-10-21T06:05:42.813Z,97870.63
2023-10-21T06:06:34.244Z,97875.09
2023-10-21T06:07:25.190Z,97865.34
2023-10-21T06:08:16.103Z,97872.66
2023-10-21T06:09:06.896Z,97872.44
2023-10-21T06:09:57.773Z,97873.47
2023-10-21T06:10:48.664Z,97876.50
2023-10-21T06:11:39.597Z,97877.34
2023-10-21T06:12:30.557Z,97883.44
2023-10-21T06:13:21.565Z,97880.97
2023-10-21T06:14:12.121Z,97880.97
2023-10-21T06:15:03.217Z,97884.84
2023-10-21T06:15:54.215Z,97885.66
2023-10-21T06:16:45.950Z,97881.59
2023-10-21T06:17:36.660Z,97882.00
2023-10-21T06:18:28.166Z,97895.44
2023-10-21T06:19:18.898Z,97903.97
2023-10-21T06:20:09.870Z,97896.03
2023-10-21T06:21:00.557Z,97893.38
2023-10-21T06:21:51.374Z,97896.22
2023-10-21T06:22:42.312Z,97899.69
2023-10-21T06:23:33.235Z,97898.25
2023-10-21T06:24:24.034Z,97903.97
2023-10-21T06:25:15.289Z,97903.97
2023-10-21T06:26:11.391Z,97903.56
2023-10-21T06:27:02.339Z,97911.06
2023-10-21T06:27:53.479Z,97904.97
2023-10-21T06:28:44.700Z,97907.19
2023-10-21T06:29:36.172Z,97908.84
2023-10-21T06:30:27.363Z,97906.81
2023-10-21T06:31:18.026Z,97908.41
2023-10-21T06:32:10.109Z,97905.56
2023-10-21T06:33:01.117Z,97910.22
2023-10-21T06:33:52.160Z,97913.22
2023-10-21T06:34:43.117Z,97915.03
2023-10-21T06:35:33.831Z,97916.44
2023-10-21T06:36:24.698Z,97906.22
2023-10-21T06:37:15.664Z,97915.41
2023-10-21T06:38:07.755Z,97920.47
2023-10-21T06:38:58.841Z,97912.34
2023-10-21T06:39:49.820Z,97915.16
2023-10-21T06:40:52.316Z,97924.13
2023-10-21T06:41:51.456Z,97926.06
2023-10-21T06:42:42.266Z,97929.00
2023-10-21T06:43:33.152Z,97928.06
2023-10-21T06:44:24.794Z,97929.91
2023-10-21T06:45:15.643Z,97938.53
2023-10-21T06:46:07.565Z,97930.22
2023-10-21T06:46:58.290Z,97939.84
2023-10-21T06:47:48.891Z,97943.53
2023-10-21T06:48:39.882Z,97947.28
2023-10-21T06:49:30.697Z,97958.09
2023-10-21T06:50:21.624Z,97947.66
2023-10-21T06:51:14.380Z,97954.75
2023-10-21T06:52:05.887Z,97946.78
2023-10-21T06:52:56.506Z,97954.75
2023-10-21T06:53:47.332Z,97960.22
2023-10-21T06:54:39.104Z,97957.31
2023-10-21T06:55:29.696Z,97955.97
2023-10-21T06:56:23.094Z,97961.50
2023-10-21T06:57:21.316Z,97965.00
2023-10-21T06:58:13.156Z,97962.16
2023-10-21T06:59:04.887Z,97968.06
2023-10-21T06:59:56.872Z,97969.09
2023-10-21T07:00:47.861Z,97977.75
2023-10-21T07:01:38.777Z,97975.59
2023-10-21T07:02:30.003Z,97977.25
2023-10-21T07:03:21.120Z,97979.31
2023-10-21T07:04:11.912Z,97979.44
2023-10-21T07:05:02.588Z,97978.16
2023-10-21T07:05:53.675Z,97989.31
2023-10-21T07:06:46.554Z,97988.72
2023-10-21T07:07:39.457Z,97979.22
2023-10-21T07:08:30.356Z,97992.06
2023-10-21T07:09:21.094Z,97990.78
2023-10-21T07:10:11.941Z,97989.31
2023-10-21T07:11:04.166Z,97981.13
2023-10-21T07:11:55.557Z,97989.31
2023-10-21T07:12:46.725Z,97994.06
2023-10-21T07:13:37.919Z,97996.94
2023-10-21T07:14:28.875Z,97997.69
2023-10-21T07:15:20.490Z,97998.31
2023-10-21T07:16:11.938Z,97991.84
2023-10-21T07:17:02.927Z,97996.03
2023-10-21T07:17:54.161Z,98005.44
2023-10-21T07:18:45.524Z,98005.94
2023-10-21T07:19:36.895Z,98002.56
2023-10-21T07:20:28.029Z,98005.59
2023-10-21T07:21:21.099Z,98007.56
2023-10-21T07:22:14.636Z,98010.47
2023-10-21T07:23:05.844Z,98011.63
2023-10-21T07:23:56.781Z,98016.94
2023-10-21T07:24:47.594Z,98017.72
2023-10-21T07:25:39.682Z,98021.25
2023-10-21T07:26:30.447Z,98017.69
2023-10-21T07:27:21.101Z,98030.66
2023-10-21T07:28:11.974Z,98031.31
2023-10-21T07:29:04.029Z,98033.03
2023-10-21T07:29:56.397Z,98035.50
2023-10-21T07:30:47.475Z,98042.66
2023-10-21T07:31:39.271Z,98042.00
2023-10-21T07:32:30.597Z,98046.00
2023-10-21T07:33:24.552Z,98042.88
2023-10-21T07:34:15.477Z,98042.78
2023-10-21T07:35:06.817Z,98044.31
2023-10-21T07:35:57.678Z,98057.50
2023-10-21T07:36:48.780Z,98063.50
2023-10-21T07:37:39.965Z,98064.97
2023-10-21T07:38:31.906Z,98067.47
2023-10-21T07:39:22.868Z,98072.00
2023-10-21T07:40:15.155Z,98075.50
2023-10-21T07:41:13.657Z,98072.47
2023-10-21T07:42:05.663Z,98075.81
2023-10-21T07:42:56.622Z,98078.31
2023-10-21T07:43:47.801Z,98074.56
2023-10-21T07:44:39.209Z,98086.41
2023-10-21T07:45:30.664Z,98091.84
2023-10-21T07:46:21.682Z,98085.44
2023-10-21T07:47:12.366Z,98094.50
2023-10-21T07:48:04.209Z,98098.31
2023-10-21T07:48:55.239Z,98102.63
2023-10-21T07:49:46.070Z,98103.78
2023-10-21T07:50:37.036Z,98095.47
2023-10-21T07:51:31.111Z,98104.94
2023-10-21T07:52:24.393Z,98112.69
2023-10-21T07:53:15.889Z,98113.41
2023-10-21T07:54:06.866Z,98111.31
2023-10-21T07:54:57.554Z,98119.13
2023-10-21T07:55:51.881Z,98116.25
2023-10-21T07:56:50.960Z,98124.53
2023-10-21T07:57:42.205Z,98127.19
2023-10-21T07:58:34.104Z,98135.00
2023-10-21T07:59:24.909Z,98135.44
2023-10-21T08:00:16.477Z,98138.09
2023-10-21T08:01:07.324Z,98132.78
2023-10-21T08:02:00.152Z,98137.75
2023-10-21T08:02:53.107Z,98140.28
2023-10-21T08:03:45.689Z,98144.09
2023-10-21T08:04:37.094Z,98143.47
2023-10-21T08:05:29.849Z,98147.06
2023-10-21T08:06:20.892Z,98147.59
2023-10-21T08:07:12.223Z,98147.84
2023-10-21T08:08:04.609Z,98156.31
2023-10-21T08:08:55.765Z,98155.72
2023-10-21T08:09:48.504Z,98150.72
2023-10-21T08:10:39.054Z,98162.97
2023-10-21T08:11:30.072Z,98167.63
2023-10-21T08:12:20.995Z,98164.38
2023-10-21T08:13:11.773Z,98160.44
2023-10-21T08:14:02.722Z,98161.03
2023-10-21T08:14:53.570Z,98173.03
2023-10-21T08:15:44.482Z,98167.09
2023-10-21T08:16:35.586Z,98164.66
2023-10-21T08:17:26.116Z,98165.91
2023-10-21T08:18:16.948Z,98168.81
2023-10-21T08:19:07.858Z,98164.66
2023-10-21T08:19:58.694Z,98167.69
2023-10-21T08:20:49.895Z,98179.94
2023-10-21T08:21:41.977Z,98180.75
2023-10-21T08:22:34.741Z,98177.41
2023-10-21T08:23:25.638Z,98183.31
2023-10-21T08:24:17.132Z,98180.44
2023-10-21T08:25:09.341Z,98179.72
2023-10-21T08:26:00.086Z,98185.63
2023-10-21T08:26:51.047Z,98184.13
2023-10-21T08:27:41.793Z,98187.03
2023-10-21T08:28:32.834Z,98188.50
2023-10-21T08:29:23.659Z,98189.56
2023-10-21T08:30:16.170Z,98194.88
2023-10-21T08:31:09.485Z,98186.78
2023-10-21T08:32:00.584Z,98193.75
2023-10-21T08:32:52.414Z,98192.38
2023-10-21T08:33:45.496Z,98191.31
2023-10-21T08:34:38.322Z,98199.09
2023-10-21T08:35:29.724Z,98199.22
2023-10-21T08:36:22.094Z,98207.63
2023-10-21T08:37:13.494Z,98204.75
2023-10-21T08:38:04.618Z,98208.47
2023-10-21T08:38:57.254Z,98204.53
2023-10-21T08:39:49.463Z,98215.06
2023-10-21T08:40:40.663Z,98214.59
2023-10-21T08:41:36.683Z,98209.94
2023-10-21T08:42:32.684Z,98211.41
2023-10-21T08:43:42.985Z,98224.56
2023-10-21T08:44:34.894Z,98230.91
2023-10-21T08:45:26.298Z,98230.00
2023-10-21T08:46:18.795Z,98226.81
2023-10-21T08:47:12.196Z,98233.84
2023-10-21T08:48:03.326Z,98231.41
2023-10-21T08:48:54.829Z,98232.31
2023-10-21T08:49:47.152Z,98231.78
2023-10-21T08:50:39.827Z,98231.69
2023-10-21T08:51:31.728Z,98237.81
2023-10-21T08:52:22.696Z,98246.59
2023-10-21T08:53:13.589Z,98239.06
2023-10-21T08:54:05.284Z,98238.91
2023-10-21T08:54:56.885Z,98241.09
2023-10-21T08:55:49.861Z,98235.53
2023-10-21T08:56:41.100Z,98243.91
2023-10-21T08:57:31.866Z,98246.03
2023-10-21T08:58:29.364Z,98247.03
2023-10-21T08:59:20.406Z,98248.31
2023-10-21T09:00:11.948Z,98251.22
2023-10-21T09:01:03.245Z,98250.16
2023-10-21T09:01:54.282Z,98247.84
2023-10-21T09:02:45.030Z,98246.16
2023-10-21T09:03:36.306Z,98255.53
2023-10-21T09:04:27.983Z,98262.00
2023-10-21T09:05:18.937Z,98262.00
2023-10-21T09:06:14.391Z,98262.59
2023-10-21T09:07:06.355Z,98253.91
2023-10-21T09:07:57.209Z,98259.34
2023-10-21T09:08:49.245Z,98264.41
2023-10-21T09:09:40.020Z,98262.16
2023-10-21T09:10:34.032Z,98271.06
2023-10-21T09:11:26.988Z,98259.97
2023-10-21T09:12:19.059Z,98269.00
2023-10-21T09:13:15.239Z,98273.50
2023-10-21T09:14:07.195Z,98275.16
2023-10-21T09:14:58.834Z,98275.63
2023-10-21T09:15:50.237Z,98263.13
2023-10-21T09:16:41.002Z,98273.56
2023-10-21T09:17:39.718Z,98280.06
2023-10-21T09:18:30.988Z,98268.22
2023-10-21T09:19:26.854Z,98274.16
2023-10-21T09:20:19.902Z,98275.13
2023-10-21T09:21:10.597Z,98275.41
2023-10-21T09:22:02.945Z,98279.97
2023-10-21T09:23:03.559Z,98286.88
2023-10-21T09:23:54.765Z,98279.69
2023-10-21T09:24:47.306Z,98285.63
2023-10-21T09:25:38.736Z,98287.13
2023-10-21T09:26:34.561Z,98285.88
2023-10-21T09:27:25.469Z,98291.41
2023-10-21T09:28:22.448Z,98286.56
2023-10-21T09:29:21.441Z,98300.00
2023-10-21T09:30:16.939Z,98287.47
2023-10-21T09:31:07.755Z,98289.41
2023-10-21T09:31:59.418Z,98295.22
2023-10-21T09:32:50.680Z,98287.69
2023-10-21T09:33:59.920Z,98304.38
2023-10-21T09:34:51.595Z,98298.22
2023-10-21T09:35:42.978Z,98306.72
2023-10-21T09:36:41.394Z,98303.38
2023-10-21T09:37:32.992Z,98300.69
2023-10-21T09:38:24.353Z,98309.28
2023-10-21T09:39:15.543Z,98303.56
2023-10-21T09:40:07.680Z,98306.63
2023-10-21T09:40:59.160Z,98302.09
2023-10-21T09:41:50.341Z,98312.97
2023-10-21T09:42:45.353Z,98306.28
2023-10-21T09:43:39.943Z,98306.25
2023-10-21T09:44:31.849Z,98295.03
2023-10-21T09:45:24.642Z,98301.41
2023-10-21T09:46:18.218Z,98311.09
2023-10-21T09:47:09.477Z,98302.31
2023-10-21T09:48:04.250Z,98307.16
2023-10-21T09:49:00.765Z,98306.94
2023-10-21T09:49:55.520Z,98317.41
2023-10-21T09:50:55.091Z,98319.69
2023-10-21T09:52:10.976Z,98313.22
2023-10-21T09:53:16.793Z,98307.16
2023-10-21T09:54:13.532Z,98313.19
2023-10-21T09:55:11.686Z,98326.25
2023-10-21T09:56:03.840Z,98323.72
2023-10-21T09:56:55.462Z,98315.13
2023-10-21T09:57:47.277Z,98325.09
2023-10-21T09:58:41.397Z,98332.66
2023-10-21T09:59:33.103Z,98332.31
2023-10-21T10:00:26.247Z,98323.50
2023-10-21T10:01:24.576Z,98330.72
2023-10-21T10:02:17.043Z,98325.41
2023-10-21T10:03:08.392Z,98330.72
2023-10-21T10:04:00.943Z,98332.81
2023-10-21T10:04:54.859Z,98333.84
2023-10-21T10:05:47.384Z,98335.38
2023-10-21T10:06:43.834Z,98338.50
2023-10-21T10:07:41.081Z,98340.28